Time;durP1;ratioP1;P1;durP2;ratioP2;P2;SDS_P1;SDS_P2;PMS_P1;PMS_P2;Temp;Humidity;BMP_temperature;BMP_pressure;BME280_temperature;BME280_humidity;BME280_pressure;Samples;Min_cycle;Max_cycle;Signal;HPM_P1;HPM_P2
2022/01/20 00:00:01;;;;;;;54.50;48.03;;;16.70;56.20;;;;;;4976741;27;96353;-71
2022/01/20 00:02:29;;;;;;;54.27;47.97;;;16.60;56.30;;;;;;4985922;27;95664;-71
2022/01/20 00:08:00;;;;;;;54.95;47.67;;;16.60;56.50;;;;;;4964533;27;96861;-72
2022/01/20 00:26:55;;;;;;;56.58;47.50;;;16.40;56.70;;;;;;4971673;27;95653;-71
2022/01/20 00:29:30;;;;;;;56.70;47.70;;;16.40;56.60;;;;;;4977222;27;96490;-70
2022/01/20 00:32:11;;;;;;;53.08;47.30;;;16.30;56.80;;;;;;4974186;27;95624;-70
2022/01/20 00:35:06;;;;;;;55.10;47.63;;;16.30;56.80;;;;;;4964417;27;95432;-70
2022/01/20 00:37:29;;;;;;;53.63;47.17;;;16.30;57.00;;;;;;4981658;27;95446;-70
2022/01/20 00:39:56;;;;;;;55.58;47.88;;;16.30;57.00;;;;;;4977065;27;99515;-71
2022/01/20 00:42:22;;;;;;;55.20;48.13;;;16.30;56.90;;;;;;4977746;27;97041;-70
2022/01/20 00:44:48;;;;;;;54.30;47.50;;;16.30;57.10;;;;;;4969574;27;96127;-70
2022/01/20 00:47:15;;;;;;;53.92;47.60;;;16.20;56.90;;;;;;4971335;27;97447;-70
2022/01/20 00:49:43;;;;;;;53.50;47.60;;;16.20;56.90;;;;;;4971509;27;96823;-70
2022/01/20 00:52:09;;;;;;;54.28;47.60;;;16.20;57.10;;;;;;4982276;27;96336;-70
2022/01/20 00:54:35;;;;;;;54.75;47.67;;;16.20;57.10;;;;;;4984635;27;96776;-70
2022/01/20 00:57:01;;;;;;;56.05;47.67;;;16.10;57.00;;;;;;4967546;27;96992;-71
2022/01/20 00:59:29;;;;;;;53.15;47.38;;;16.10;57.20;;;;;;4975932;27;95173;-70
2022/01/20 01:01:59;;;;;;;53.63;47.80;;;16.10;57.20;;;;;;4983364;27;100261;-70
2022/01/20 01:04:26;;;;;;;53.63;47.42;;;16.10;57.30;;;;;;4974954;27;96648;-71
2022/01/20 01:09:20;;;;;;;54.33;47.45;;;16.10;57.00;;;;;;4988332;27;95338;-70
2022/01/20 01:11:47;;;;;;;53.85;47.35;;;16.00;57.10;;;;;;4984250;27;98056;-70
2022/01/20 01:14:15;;;;;;;54.53;47.35;;;16.10;57.20;;;;;;4976174;27;101648;-71
2022/01/20 01:24:43;;;;;;;54.00;47.47;;;15.90;57.20;;;;;;4980428;27;99097;-70
2022/01/20 01:27:11;;;;;;;52.85;47.05;;;15.90;57.30;;;;;;4979413;27;96745;-70
2022/01/20 01:32:29;;;;;;;54.35;47.47;;;15.90;57.40;;;;;;4987817;27;96799;-70
2022/01/20 01:34:55;;;;;;;53.90;47.53;;;15.90;57.30;;;;;;4978193;27;97282;-70
2022/01/20 01:40:05;;;;;;;53.72;46.75;;;15.90;57.40;;;;;;4965947;27;96662;-71
2022/01/20 01:42:38;;;;;;;55.38;47.60;;;15.90;57.30;;;;;;4980771;27;99861;-71
2022/01/20 01:45:19;;;;;;;53.60;47.15;;;15.90;57.40;;;;;;4978731;27;95926;-70
2022/01/20 01:47:46;;;;;;;53.43;47.30;;;15.80;57.50;;;;;;4964849;27;96474;-70
2022/01/20 01:50:13;;;;;;;55.55;47.38;;;15.80;57.40;;;;;;4970721;27;96078;-70
2022/01/20 01:52:39;;;;;;;53.38;47.03;;;15.90;57.20;;;;;;4982442;27;95222;-70
2022/01/20 01:55:05;;;;;;;52.83;47.03;;;15.90;57.20;;;;;;4967986;27;97205;-70
2022/01/20 01:57:31;;;;;;;53.42;46.80;;;15.80;57.10;;;;;;4979749;27;97178;-70
2022/01/20 01:59:57;;;;;;;53.10;47.28;;;15.80;57.20;;;;;;4966912;27;98034;-70
2022/01/20 02:02:23;;;;;;;53.17;47.20;;;15.80;57.10;;;;;;4973359;27;95581;-70
2022/01/20 02:04:49;;;;;;;53.67;47.08;;;15.80;57.20;;;;;;4970714;27;100798;-70
2022/01/20 02:20:59;;;;;;;53.67;46.72;;;15.70;57.30;;;;;;4970487;27;96392;-70
2022/01/20 02:23:26;;;;;;;52.53;46.80;;;15.70;57.40;;;;;;4973718;27;98629;-70
2022/01/20 02:25:52;;;;;;;53.33;47.22;;;15.70;57.20;;;;;;4973921;27;102804;-70
2022/01/20 02:28:18;;;;;;;52.53;46.78;;;15.70;57.30;;;;;;4990310;27;97456;-71
2022/01/20 02:30:44;;;;;;;53.00;47.15;;;15.70;57.50;;;;;;4966915;27;96033;-70
2022/01/20 02:33:16;;;;;;;52.83;47.03;;;15.70;57.60;;;;;;4975039;27;95400;-71
2022/01/20 02:35:45;;;;;;;53.00;47.10;;;15.80;57.30;;;;;;4980168;27;95251;-70
2022/01/20 02:38:17;;;;;;;53.92;47.15;;;15.80;56.90;;;;;;4986550;27;96269;-70
2022/01/20 02:45:58;;;;;;;54.90;46.83;;;15.70;57.60;;;;;;4971125;27;101929;-70
2022/01/20 02:48:24;;;;;;;52.65;46.85;;;15.60;57.40;;;;;;4973882;27;101924;-70
2022/01/20 02:50:50;;;;;;;52.67;46.92;;;15.60;57.50;;;;;;4979081;27;95370;-70
2022/01/20 02:53:16;;;;;;;54.28;46.90;;;15.60;57.30;;;;;;4975969;27;97143;-70
2022/01/20 02:55:41;;;;;;;52.55;46.80;;;15.60;57.30;;;;;;4977176;27;95887;-72
2022/01/20 02:58:08;;;;;;;53.15;46.60;;;15.60;57.40;;;;;;4973495;27;95046;-70
2022/01/20 03:00:34;;;;;;;52.78;47.00;;;15.60;57.40;;;;;;4974573;27;95778;-70
2022/01/20 03:03:01;;;;;;;52.22;46.53;;;15.60;57.50;;;;;;4975038;27;96009;-70
2022/01/20 03:05:27;;;;;;;52.75;46.65;;;15.60;57.30;;;;;;4968824;27;96072;-70
2022/01/20 03:07:54;;;;;;;52.35;46.65;;;15.50;57.50;;;;;;4973112;27;97166;-70
2022/01/20 03:10:19;;;;;;;52.78;47.00;;;15.50;57.50;;;;;;4972998;27;95874;-70
2022/01/20 03:12:45;;;;;;;52.42;46.72;;;15.60;57.60;;;;;;4986810;27;96332;-70
2022/01/20 03:15:11;;;;;;;52.67;46.92;;;15.50;57.50;;;;;;4990954;27;96029;-70
2022/01/20 03:17:36;;;;;;;52.60;46.90;;;15.50;57.80;;;;;;4999270;27;100458;-70
2022/01/20 03:20:03;;;;;;;52.45;46.70;;;15.50;57.60;;;;;;4999574;27;96061;-70
2022/01/20 03:22:28;;;;;;;52.17;46.50;;;15.60;57.50;;;;;;4980781;27;96884;-70
2022/01/20 03:24:55;;;;;;;54.30;46.70;;;15.60;57.50;;;;;;4974458;27;97112;-70
2022/01/20 03:27:21;;;;;;;52.17;46.53;;;15.60;57.20;;;;;;4980251;27;96042;-70
2022/01/20 03:29:46;;;;;;;52.42;46.72;;;15.60;57.40;;;;;;4972548;27;96312;-70
2022/01/20 03:32:12;;;;;;;52.35;46.67;;;15.60;57.40;;;;;;4979451;27;95598;-70
2022/01/20 03:34:38;;;;;;;52.92;46.88;;;15.60;57.50;;;;;;4974758;27;99934;-71
2022/01/20 03:37:05;;;;;;;52.20;46.42;;;15.70;57.30;;;;;;4977820;27;97296;-70
2022/01/20 03:39:31;;;;;;;52.17;46.45;;;15.70;57.30;;;;;;4973212;27;100091;-70
2022/01/20 03:41:57;;;;;;;53.05;46.97;;;15.70;57.30;;;;;;4982484;27;100047;-70
2022/01/20 03:44:23;;;;;;;51.88;46.28;;;15.70;56.90;;;;;;4982767;27;95655;-71
2022/01/20 03:46:49;;;;;;;53.95;46.80;;;15.80;56.80;;;;;;4977325;27;96789;-70
2022/01/20 03:52:07;;;;;;;52.28;46.60;;;15.90;57.20;;;;;;4958871;27;100295;-70
2022/01/20 03:54:33;;;;;;;51.90;46.28;;;15.90;56.60;;;;;;4983500;27;100730;-71
2022/01/20 03:56:59;;;;;;;52.50;46.78;;;16.00;56.40;;;;;;4982530;27;95573;-70
2022/01/20 03:59:25;;;;;;;52.30;46.58;;;16.00;56.40;;;;;;4972046;27;97360;-70
2022/01/20 04:01:51;;;;;;;52.85;46.58;;;16.00;56.20;;;;;;4972418;27;100927;-70
2022/01/20 04:04:16;;;;;;;52.33;46.63;;;16.10;56.40;;;;;;4972754;27;95827;-70
2022/01/20 04:06:42;;;;;;;52.72;46.80;;;16.10;56.00;;;;;;4980684;27;95495;-70
2022/01/20 04:09:08;;;;;;;52.05;46.42;;;16.20;56.00;;;;;;4975108;27;96768;-70
2022/01/20 04:11:33;;;;;;;52.20;46.47;;;16.20;55.90;;;;;;4972343;27;96973;-70
2022/01/20 04:14:02;;;;;;;52.95;46.55;;;16.20;55.60;;;;;;4972704;27;98099;-71
2022/01/20 04:19:17;;;;;;;52.00;46.22;;;16.20;55.70;;;;;;4966441;27;95157;-70
2022/01/20 04:21:43;;;;;;;51.63;46.08;;;16.20;55.80;;;;;;4968847;27;96026;-70
2022/01/20 04:24:10;;;;;;;52.55;46.70;;;16.20;55.50;;;;;;4955844;27;97891;-70
2022/01/20 04:26:38;;;;;;;52.50;46.65;;;16.20;55.90;;;;;;4977710;27;98032;-70
2022/01/20 04:29:05;;;;;;;52.30;46.60;;;16.20;55.50;;;;;;4975343;27;101290;-70
2022/01/20 04:31:32;;;;;;;53.33;46.60;;;16.20;55.60;;;;;;4974260;27;100386;-70
2022/01/20 04:33:58;;;;;;;52.65;46.65;;;16.20;55.70;;;;;;4981101;27;97449;-70
2022/01/20 04:36:26;;;;;;;54.70;46.65;;;16.10;55.60;;;;;;4943996;27;114020;-70
2022/01/20 04:38:52;;;;;;;42.23;37.93;;;16.20;55.60;;;;;;266058;28;10118851;-70
2022/01/20 04:41:18;;;;;;;52.47;46.65;;;16.20;55.50;;;;;;4985010;27;96265;-70
2022/01/20 04:43:44;;;;;;;52.28;46.58;;;16.20;55.50;;;;;;4980375;27;99346;-70
2022/01/20 04:46:18;;;;;;;52.45;46.72;;;16.20;55.70;;;;;;4984538;27;96793;-70
2022/01/20 04:57:16;;;;;;;52.58;46.75;;;16.10;55.60;;;;;;4997706;27;96063;-70
2022/01/20 04:59:43;;;;;;;52.13;46.42;;;16.20;55.70;;;;;;4985377;27;96248;-70
2022/01/20 05:02:08;;;;;;;53.90;46.88;;;16.10;55.50;;;;;;4989294;27;95394;-70
2022/01/20 05:04:35;;;;;;;52.60;46.80;;;16.10;55.70;;;;;;4981014;27;95484;-70
2022/01/20 05:07:01;;;;;;;52.58;46.75;;;16.10;55.60;;;;;;4996233;27;98164;-71
2022/01/20 05:09:27;;;;;;;52.35;46.35;;;16.10;55.70;;;;;;4991745;27;95624;-70
2022/01/20 05:12:11;;;;;;;52.15;46.50;;;16.10;56.00;;;;;;4978394;27;95987;-70
2022/01/20 05:14:37;;;;;;;53.40;46.80;;;16.10;56.40;;;;;;4978118;27;96219;-70
2022/01/20 05:17:03;;;;;;;52.30;46.63;;;16.10;56.10;;;;;;4987096;27;100457;-70
2022/01/20 05:19:30;;;;;;;53.67;46.67;;;16.30;56.10;;;;;;4962239;27;97084;-70
2022/01/20 05:21:57;;;;;;;52.42;46.60;;;16.40;55.90;;;;;;4975119;27;96064;-70
2022/01/20 05:24:23;;;;;;;52.30;46.60;;;16.60;55.60;;;;;;4980408;27;96856;-70
2022/01/20 05:26:50;;;;;;;52.92;46.72;;;16.70;55.50;;;;;;4978840;27;99295;-70
2022/01/20 05:29:17;;;;;;;53.28;46.88;;;16.80;55.90;;;;;;4983037;27;103052;-70
2022/01/20 05:31:43;;;;;;;52.42;46.72;;;16.90;55.10;;;;;;4974744;27;97211;-70
2022/01/20 05:34:08;;;;;;;53.75;46.72;;;17.10;54.90;;;;;;4975282;27;95148;-70
2022/01/20 05:36:34;;;;;;;52.40;46.65;;;17.10;54.90;;;;;;4972017;27;96098;-70
2022/01/20 05:39:00;;;;;;;52.80;47.00;;;17.20;54.50;;;;;;4970852;27;97810;-70
2022/01/20 05:41:25;;;;;;;52.83;46.92;;;17.30;54.40;;;;;;4970621;27;97821;-70
2022/01/20 05:43:51;;;;;;;52.90;46.80;;;17.40;54.30;;;;;;4978510;27;95950;-71
2022/01/20 05:46:21;;;;;;;53.00;46.95;;;17.50;54.10;;;;;;4988515;27;96037;-70
2022/01/20 05:48:48;;;;;;;54.17;47.15;;;17.50;53.90;;;;;;4977984;27;95301;-71
2022/01/20 05:51:14;;;;;;;52.53;46.80;;;17.50;54.00;;;;;;4967640;27;98020;-70
2022/01/20 05:53:40;;;;;;;52.22;46.53;;;17.60;53.90;;;;;;4977849;27;95998;-70
2022/01/20 05:56:06;;;;;;;54.72;47.05;;;17.60;53.60;;;;;;4967167;27;98671;-71
2022/01/20 05:58:36;;;;;;;53.45;46.92;;;17.60;53.60;;;;;;4965513;27;103590;-71
2022/01/20 06:01:04;;;;;;;53.03;46.85;;;17.60;53.70;;;;;;4971773;27;96227;-70
2022/01/20 06:03:36;;;;;;;53.08;46.75;;;17.50;53.60;;;;;;4972617;27;95682;-71
2022/01/20 06:06:02;;;;;;;53.33;47.13;;;17.50;53.50;;;;;;4970718;27;98877;-71
2022/01/20 06:08:28;;;;;;;53.33;46.95;;;17.50;53.60;;;;;;4980071;27;97028;-71
2022/01/20 06:10:54;;;;;;;52.70;46.85;;;17.40;53.70;;;;;;4977628;27;96114;-71
2022/01/20 06:13:20;;;;;;;53.33;47.08;;;17.40;53.70;;;;;;4950449;27;94759;-70
2022/01/20 06:15:45;;;;;;;52.28;46.65;;;17.40;53.80;;;;;;4984837;27;97341;-71
2022/01/20 06:18:11;;;;;;;54.47;46.70;;;17.30;53.90;;;;;;4986130;27;101281;-71
2022/01/20 06:20:38;;;;;;;53.42;47.00;;;17.40;53.80;;;;;;4974493;27;95606;-72
2022/01/20 06:23:05;;;;;;;53.17;47.08;;;17.30;53.70;;;;;;4975725;27;95054;-71
2022/01/20 06:25:32;;;;;;;53.65;46.78;;;17.30;53.80;;;;;;4976610;27;96804;-71
2022/01/20 06:27:58;;;;;;;52.78;46.95;;;17.30;53.90;;;;;;4984330;27;96600;-71
2022/01/20 06:30:25;;;;;;;55.70;46.85;;;17.30;53.80;;;;;;4973542;27;98567;-72
2022/01/20 06:32:51;;;;;;;54.38;47.20;;;17.20;53.80;;;;;;4972167;27;96571;-71
2022/01/20 06:35:17;;;;;;;52.83;46.85;;;17.30;55.00;;;;;;4969527;27;97314;-71
2022/01/20 06:37:43;;;;;;;56.45;47.45;;;17.20;55.00;;;;;;4976318;27;96322;-71
2022/01/20 06:40:10;;;;;;;55.05;46.85;;;17.30;55.10;;;;;;4966237;27;95690;-71
2022/01/20 06:42:36;;;;;;;54.50;46.92;;;17.20;55.00;;;;;;4961956;27;96475;-71
2022/01/20 06:45:08;;;;;;;57.17;46.97;;;17.20;55.30;;;;;;4967538;27;98240;-70
2022/01/20 06:47:34;;;;;;;55.13;47.50;;;17.20;55.30;;;;;;4973043;27;96962;-70
2022/01/20 06:50:00;;;;;;;56.05;47.15;;;17.20;55.30;;;;;;4971883;27;99557;-71
2022/01/20 06:52:28;;;;;;;54.72;47.15;;;17.20;55.00;;;;;;4972775;27;95171;-70
2022/01/20 06:54:54;;;;;;;55.28;47.25;;;17.20;54.70;;;;;;4983519;27;96904;-71
2022/01/20 06:57:21;;;;;;;54.20;47.13;;;17.10;54.00;;;;;;4971369;27;97216;-71
2022/01/20 06:59:47;;;;;;;55.53;47.33;;;17.20;54.70;;;;;;4968031;27;95125;-71
2022/01/20 07:02:12;;;;;;;60.78;47.50;;;17.20;54.50;;;;;;4986666;27;94977;-70
2022/01/20 07:04:38;;;;;;;55.15;47.75;;;17.10;54.50;;;;;;4991389;27;95053;-71
2022/01/20 07:07:05;;;;;;;55.28;47.83;;;17.10;54.90;;;;;;4985604;27;95734;-70
2022/01/20 07:09:32;;;;;;;55.75;47.80;;;17.10;55.10;;;;;;4990966;27;96095;-70
2022/01/20 07:11:59;;;;;;;58.00;47.75;;;17.20;55.20;;;;;;4916209;27;98041;-72
2022/01/20 07:14:24;;;;;;;51.63;39.53;;;17.10;55.20;;;;;;266070;27;10109129;-72
2022/01/20 07:16:50;;;;;;;56.58;47.92;;;17.20;55.50;;;;;;4967701;27;96443;-72
2022/01/20 07:19:16;;;;;;;61.33;48.28;;;17.20;55.60;;;;;;4957916;27;101731;-72
2022/01/20 07:21:43;;;;;;;56.85;48.17;;;17.20;55.80;;;;;;4956498;27;96171;-72
2022/01/20 07:24:08;;;;;;;62.17;48.47;;;17.20;56.10;;;;;;4972278;27;95061;-73
2022/01/20 07:26:34;;;;;;;57.47;48.17;;;17.30;56.00;;;;;;4956389;27;97484;-72
2022/01/20 07:29:00;;;;;;;57.63;47.92;;;17.30;56.00;;;;;;4985682;27;97376;-72
2022/01/20 07:31:26;;;;;;;59.63;48.42;;;17.30;56.20;;;;;;4972644;27;96759;-72
2022/01/20 07:33:52;;;;;;;59.10;48.22;;;17.30;56.30;;;;;;4973934;27;95214;-72
2022/01/20 07:36:18;;;;;;;59.25;48.05;;;17.30;56.50;;;;;;4973892;27;94960;-73
2022/01/20 07:38:44;;;;;;;57.00;47.92;;;17.30;56.50;;;;;;4968984;27;95610;-72
2022/01/20 07:41:10;;;;;;;58.58;48.35;;;17.30;56.30;;;;;;4964491;27;98899;-73
2022/01/20 07:43:36;;;;;;;56.78;47.95;;;17.30;56.20;;;;;;4953616;27;96326;-73
2022/01/20 07:46:02;;;;;;;62.55;48.45;;;17.40;56.10;;;;;;4964841;27;97142;-74
2022/01/20 07:48:27;;;;;;;56.60;48.40;;;17.40;56.00;;;;;;4952170;27;100358;-72
2022/01/20 07:50:53;;;;;;;56.28;48.53;;;17.40;56.70;;;;;;4945872;27;96732;-72
2022/01/20 07:53:19;;;;;;;64.55;49.05;;;17.40;56.70;;;;;;4974830;27;98050;-72
2022/01/20 07:55:45;;;;;;;58.10;48.65;;;17.70;57.10;;;;;;4970927;27;101236;-74
2022/01/20 07:58:10;;;;;;;62.13;49.03;;;17.80;56.60;;;;;;4967072;27;98632;-70
2022/01/20 08:00:36;;;;;;;61.45;48.85;;;18.00;56.00;;;;;;4969602;27;100139;-70
2022/01/20 08:03:02;;;;;;;59.88;48.83;;;18.00;56.20;;;;;;4974009;27;102666;-71
2022/01/20 08:05:27;;;;;;;60.22;48.47;;;18.00;55.90;;;;;;4977646;27;99112;-72
2022/01/20 08:07:53;;;;;;;61.00;48.92;;;18.10;55.80;;;;;;4974999;27;97839;-72
2022/01/20 08:10:19;;;;;;;59.85;48.88;;;18.00;55.90;;;;;;4973786;27;95516;-71
2022/01/20 08:12:44;;;;;;;59.17;48.75;;;18.10;55.00;;;;;;4989513;27;95423;-72
2022/01/20 08:15:12;;;;;;;61.45;48.55;;;18.00;55.90;;;;;;4983096;27;97240;-71
2022/01/20 08:17:39;;;;;;;60.60;48.75;;;18.00;56.30;;;;;;4964000;27;96955;-73
2022/01/20 08:20:06;;;;;;;59.95;49.08;;;18.00;56.20;;;;;;4971683;27;97616;-72
2022/01/20 08:22:34;;;;;;;61.17;48.88;;;18.10;55.40;;;;;;4975561;27;96130;-73
2022/01/20 08:25:05;;;;;;;63.35;48.70;;;18.10;55.50;;;;;;4973961;27;101609;-73
2022/01/20 08:27:31;;;;;;;60.70;48.50;;;18.10;55.80;;;;;;4980307;27;97142;-71
2022/01/20 08:29:57;;;;;;;57.92;48.70;;;18.10;55.30;;;;;;4969152;27;95466;-73
2022/01/20 08:32:22;;;;;;;60.65;48.83;;;18.10;54.80;;;;;;4976788;27;101290;-73
2022/01/20 08:34:48;;;;;;;62.63;48.88;;;18.10;53.90;;;;;;4977331;27;95757;-73
2022/01/20 08:37:14;;;;;;;57.72;48.33;;;18.10;54.00;;;;;;4957286;27;96064;-72
2022/01/20 08:39:40;;;;;;;58.30;48.70;;;18.10;54.10;;;;;;4996791;27;95766;-72
2022/01/20 08:42:07;;;;;;;60.42;48.92;;;18.20;54.00;;;;;;4979747;27;95598;-73
2022/01/20 08:44:33;;;;;;;61.80;49.08;;;18.10;54.10;;;;;;4971433;27;100986;-71
2022/01/20 08:47:01;;;;;;;60.40;48.97;;;18.20;54.10;;;;;;4983305;27;96735;-69
2022/01/20 08:49:27;;;;;;;61.10;48.97;;;18.20;53.40;;;;;;4993563;27;95752;-69
2022/01/20 08:52:00;;;;;;;61.83;49.13;;;18.20;53.30;;;;;;4972545;27;97079;-73
2022/01/20 08:54:28;;;;;;;60.60;48.63;;;18.30;53.50;;;;;;4999921;27;95333;-73
2022/01/20 08:56:54;;;;;;;63.65;49.00;;;18.30;53.60;;;;;;4996289;27;97880;-74
2022/01/20 08:59:20;;;;;;;62.22;48.92;;;18.40;53.60;;;;;;4981594;27;94775;-73
2022/01/20 09:01:46;;;;;;;59.47;48.85;;;18.40;53.40;;;;;;4967731;27;95959;-71
2022/01/20 09:04:12;;;;;;;59.53;49.00;;;18.40;53.40;;;;;;4977798;27;96554;-72
2022/01/20 09:06:38;;;;;;;60.28;49.08;;;18.50;53.20;;;;;;4981381;27;95308;-71
2022/01/20 09:09:04;;;;;;;63.10;49.35;;;18.50;53.10;;;;;;4980078;27;100457;-71
2022/01/20 09:11:37;;;;;;;57.33;48.78;;;18.50;53.00;;;;;;4974728;27;96000;-70
2022/01/20 09:16:47;;;;;;;63.45;48.78;;;18.50;52.40;;;;;;4982011;27;95816;-70
2022/01/20 09:19:13;;;;;;;60.00;48.63;;;18.50;52.20;;;;;;4972449;27;95164;-70
2022/01/20 09:21:39;;;;;;;59.50;49.22;;;18.50;52.30;;;;;;4964578;27;97780;-69
2022/01/20 09:24:06;;;;;;;60.50;49.13;;;18.60;52.30;;;;;;4972139;27;95989;-70
2022/01/20 09:26:32;;;;;;;59.50;48.78;;;18.60;52.10;;;;;;4959406;28;97061;-73
2022/01/20 09:28:58;;;;;;;60.58;49.00;;;18.60;52.00;;;;;;4982510;27;95499;-73
2022/01/20 09:31:26;;;;;;;59.67;49.17;;;18.60;51.70;;;;;;4988606;27;95638;-73
2022/01/20 09:33:52;;;;;;;59.85;49.08;;;18.60;52.00;;;;;;4977118;27;96163;-71
2022/01/20 09:36:19;;;;;;;60.28;48.83;;;18.60;51.80;;;;;;4986670;27;95093;-74
2022/01/20 09:38:45;;;;;;;60.80;49.05;;;18.60;51.80;;;;;;4980824;27;95620;-74
2022/01/20 09:41:11;;;;;;;63.03;49.70;;;18.60;51.30;;;;;;4989796;27;96077;-71
2022/01/20 09:43:36;;;;;;;60.55;49.40;;;18.70;51.50;;;;;;4979099;27;96982;-71
2022/01/20 09:46:02;;;;;;;58.42;49.05;;;18.80;51.70;;;;;;4980903;27;96664;-70
2022/01/20 09:48:29;;;;;;;60.70;49.20;;;18.90;52.00;;;;;;4984050;27;96841;-70
2022/01/20 09:50:56;;;;;;;58.75;49.05;;;19.00;52.00;;;;;;4981452;27;96576;-71
2022/01/20 09:53:23;;;;;;;62.13;49.42;;;19.10;51.90;;;;;;4981428;27;97585;-70
2022/01/20 09:55:49;;;;;;;61.05;49.35;;;19.20;51.80;;;;;;4984047;27;95483;-70
2022/01/20 09:58:15;;;;;;;59.20;49.20;;;19.30;51.90;;;;;;4989471;27;95484;-70
2022/01/20 10:00:44;;;;;;;58.50;49.10;;;19.40;51.60;;;;;;4969320;27;96823;-70
2022/01/20 10:03:12;;;;;;;59.88;49.17;;;19.40;51.70;;;;;;4984244;27;95591;-69
2022/01/20 10:05:49;;;;;;;59.97;49.20;;;19.50;51.30;;;;;;4992420;27;96244;-69
2022/01/20 10:08:23;;;;;;;58.88;49.33;;;19.60;51.30;;;;;;4989482;27;95655;-70
2022/01/20 10:10:55;;;;;;;58.58;49.25;;;19.70;51.40;;;;;;4997483;27;96071;-71
2022/01/20 10:13:25;;;;;;;61.67;49.35;;;19.70;51.30;;;;;;4975786;27;100289;-72
2022/01/20 10:16:00;;;;;;;60.58;49.28;;;19.80;51.20;;;;;;4980163;27;95243;-72
2022/01/20 10:18:26;;;;;;;59.08;49.20;;;19.90;50.60;;;;;;4983381;27;97177;-72
2022/01/20 10:20:59;;;;;;;61.40;49.55;;;19.90;50.90;;;;;;4972475;27;96067;-71
2022/01/20 10:23:41;;;;;;;58.28;45.07;;;19.90;49.80;;;;;;1436604;27;10120866;-72
2022/01/20 10:26:27;;;;;;;59.28;49.42;;;19.90;50.10;;;;;;3945702;27;10097897;-71
2022/01/20 10:29:19;;;;;;;60.22;49.35;;;19.90;50.10;;;;;;4993773;27;96467;-71
2022/01/20 10:31:51;;;;;;;60.17;49.58;;;20.00;50.30;;;;;;4993167;27;96363;-70
2022/01/20 10:34:43;;;;;;;61.05;49.28;;;20.00;50.50;;;;;;4999279;27;96222;-72
2022/01/20 10:37:19;;;;;;;60.25;49.63;;;19.90;50.50;;;;;;4987509;27;97296;-72
2022/01/20 10:39:46;;;;;;;61.30;49.05;;;19.90;50.60;;;;;;4967480;27;95402;-70
2022/01/20 10:42:23;;;;;;;59.53;49.33;;;19.90;50.40;;;;;;4992910;27;95397;-71
2022/01/20 10:44:54;;;;;;;59.03;49.20;;;19.90;50.10;;;;;;4970051;27;96964;-69
2022/01/20 10:47:23;;;;;;;58.45;49.42;;;19.90;50.10;;;;;;4988221;27;95106;-70
2022/01/20 10:49:50;;;;;;;61.55;49.38;;;19.90;50.40;;;;;;4992812;27;97745;-70
2022/01/20 10:52:19;;;;;;;60.05;49.42;;;19.90;50.60;;;;;;4997004;27;95266;-70
2022/01/20 10:54:48;;;;;;;58.75;49.30;;;19.90;50.60;;;;;;4988365;27;96271;-71
2022/01/20 10:57:16;;;;;;;58.33;49.10;;;19.90;50.70;;;;;;4985248;27;95603;-70
2022/01/20 10:59:50;;;;;;;60.60;49.42;;;19.90;50.80;;;;;;4981436;27;96717;-70
2022/01/20 11:02:21;;;;;;;60.45;49.20;;;19.80;50.20;;;;;;4983603;27;103263;-71
2022/01/20 11:04:47;;;;;;;62.50;49.38;;;19.70;50.50;;;;;;4987844;27;95697;-72
2022/01/20 11:07:14;;;;;;;59.55;49.60;;;19.50;49.90;;;;;;4976603;27;95592;-70
2022/01/20 11:09:45;;;;;;;61.25;49.53;;;19.40;51.30;;;;;;4975202;27;95857;-69
2022/01/20 11:12:11;;;;;;;;;;;19.20;50.00;;;;;;4975839;27;97002;-71
2022/01/20 11:14:37;;;;;;;59.75;49.03;;;19.20;51.90;;;;;;4988326;27;96954;-71
2022/01/20 11:17:04;;;;;;;59.90;49.25;;;19.10;51.30;;;;;;4981774;27;96276;-71
2022/01/20 11:19:36;;;;;;;60.92;49.03;;;19.20;51.70;;;;;;4977169;27;95683;-72
2022/01/20 11:22:09;;;;;;;59.22;49.00;;;19.30;50.80;;;;;;4977694;27;95739;-71
2022/01/20 11:24:36;;;;;;;60.45;49.28;;;19.20;51.20;;;;;;4976600;27;96933;-70
2022/01/20 11:27:03;;;;;;;59.55;49.10;;;19.20;50.80;;;;;;4976694;27;96183;-70
2022/01/20 11:29:49;;;;;;;57.22;49.05;;;19.10;51.00;;;;;;4973803;27;95474;-71
2022/01/20 11:32:20;;;;;;;58.17;48.75;;;19.10;50.50;;;;;;4980916;27;99538;-70
2022/01/20 11:34:59;;;;;;;57.45;48.88;;;19.10;50.90;;;;;;4974963;27;96551;-71
2022/01/20 11:37:28;;;;;;;57.97;48.70;;;19.10;50.20;;;;;;4983701;27;96277;-71
2022/01/20 11:40:06;;;;;;;58.72;49.05;;;19.00;50.60;;;;;;4958838;27;94931;-71
2022/01/20 11:42:31;;;;;;;57.42;48.50;;;19.10;50.90;;;;;;4983528;27;95965;-71
2022/01/20 11:44:57;;;;;;;60.83;49.00;;;19.10;50.10;;;;;;4979490;27;95575;-72
2022/01/20 11:47:32;;;;;;;58.50;48.53;;;19.10;50.80;;;;;;4984096;27;96174;-71
2022/01/20 11:49:58;;;;;;;58.58;48.97;;;19.00;50.50;;;;;;4992486;27;95891;-70
2022/01/20 11:52:25;;;;;;;59.47;48.95;;;18.90;49.60;;;;;;4992095;27;98351;-70
2022/01/20 11:54:52;;;;;;;56.70;48.38;;;18.80;50.20;;;;;;4973076;27;96533;-71
2022/01/20 11:57:20;;;;;;;55.90;48.20;;;18.70;51.10;;;;;;4986794;27;97230;-69
2022/01/20 11:59:49;;;;;;;58.53;48.45;;;18.60;50.90;;;;;;4981780;27;96747;-70
2022/01/20 12:02:32;;;;;;;58.28;48.78;;;18.50;51.10;;;;;;4982573;27;97437;-72
2022/01/20 12:04:59;;;;;;;57.90;48.47;;;18.40;52.20;;;;;;4986107;27;97020;-73
2022/01/20 12:07:30;;;;;;;57.25;48.38;;;18.40;52.00;;;;;;4974276;27;95470;-72
2022/01/20 12:10:21;;;;;;;59.28;48.60;;;18.30;51.40;;;;;;4980853;27;100031;-71
2022/01/20 12:12:46;;;;;;;57.03;48.33;;;18.30;53.00;;;;;;4984764;27;100896;-69
2022/01/20 12:15:20;;;;;;;57.00;48.47;;;18.40;52.00;;;;;;4987804;27;96330;-69
2022/01/20 12:17:53;;;;;;;59.38;48.72;;;18.50;52.80;;;;;;4989319;27;101989;-71
2022/01/20 12:20:19;;;;;;;57.35;48.60;;;18.50;52.30;;;;;;4981236;27;101234;-70
2022/01/20 12:22:46;;;;;;;59.47;48.72;;;18.50;52.20;;;;;;4983991;27;95988;-72
2022/01/20 12:25:24;;;;;;;56.83;48.35;;;18.50;53.20;;;;;;4991439;27;96321;-71
2022/01/20 12:27:50;;;;;;;58.35;48.50;;;18.50;53.30;;;;;;4981570;27;97211;-71
2022/01/20 12:30:22;;;;;;;58.13;48.45;;;18.50;52.50;;;;;;4968526;27;102459;-70
2022/01/20 12:32:59;;;;;;;57.45;48.38;;;18.50;52.40;;;;;;4965828;27;96099;-70
2022/01/20 12:35:32;;;;;;;58.20;48.35;;;18.40;53.40;;;;;;4974221;27;95376;-69
2022/01/20 12:37:58;;;;;;;60.13;48.50;;;18.30;53.40;;;;;;4963616;27;95754;-70
2022/01/20 12:40:24;;;;;;;55.90;48.33;;;18.30;53.50;;;;;;4977094;27;105706;-71
2022/01/20 12:42:50;;;;;;;56.55;48.35;;;18.40;52.10;;;;;;4957277;27;99244;-71
2022/01/20 12:48:14;;;;;;;58.05;48.25;;;18.40;52.80;;;;;;4956897;27;97285;-73
2022/01/20 12:50:54;;;;;;;56.13;48.10;;;18.30;52.20;;;;;;4978404;27;101646;-72
2022/01/20 12:53:36;;;;;;;59.05;48.40;;;18.20;52.70;;;;;;4966937;27;97831;-72
2022/01/20 12:56:07;;;;;;;58.25;48.45;;;18.20;53.00;;;;;;4976304;27;98187;-72
2022/01/20 12:58:51;;;;;;;57.60;48.10;;;18.20;52.50;;;;;;4975839;27;95756;-70
2022/01/20 13:01:17;;;;;;;52.60;47.00;;;18.20;53.30;;;;;;4986246;27;95021;-78
2022/01/20 13:03:43;;;;;;;52.05;46.55;;;18.20;53.30;;;;;;4999625;27;96210;-77
2022/01/20 13:06:21;;;;;;;51.95;46.55;;;18.50;52.10;;;;;;4983685;27;95683;-78
2022/01/20 13:09:05;;;;;;;52.60;46.92;;;18.80;52.20;;;;;;4985631;27;97044;-77
2022/01/20 13:11:38;;;;;;;55.45;48.17;;;19.00;51.10;;;;;;4986803;27;96364;-76
2022/01/20 13:14:04;;;;;;;60.92;47.85;;;19.00;50.90;;;;;;4965307;27;95582;-71
2022/01/20 13:16:32;;;;;;;55.58;47.97;;;18.90;51.20;;;;;;4981437;27;100290;-71
2022/01/20 13:19:00;;;;;;;57.65;48.35;;;19.00;51.20;;;;;;4973324;27;96067;-70
2022/01/20 13:21:45;;;;;;;54.10;47.97;;;19.00;51.50;;;;;;4987980;27;95901;-71
2022/01/20 13:24:12;;;;;;;54.03;47.97;;;19.00;52.80;;;;;;5001174;27;95652;-71
2022/01/20 13:26:53;;;;;;;55.28;47.95;;;19.10;52.10;;;;;;4920682;27;95896;-72
2022/01/20 13:29:20;;;;;;;54.40;47.80;;;19.10;51.70;;;;;;644585;27;10099500;-71
2022/01/20 13:31:49;;;;;;;54.08;47.78;;;19.00;52.10;;;;;;4984424;27;95298;-72
2022/01/20 13:34:19;;;;;;;53.88;47.92;;;19.00;51.90;;;;;;4973109;27;98033;-72
2022/01/20 13:36:52;;;;;;;53.63;47.72;;;19.00;52.10;;;;;;4970531;27;100296;-71
2022/01/20 13:39:35;;;;;;;53.55;47.60;;;18.90;51.80;;;;;;4977393;27;96317;-72
2022/01/20 13:42:19;;;;;;;53.33;47.55;;;18.80;52.30;;;;;;4979575;27;97257;-72
2022/01/20 13:45:18;;;;;;;53.88;47.97;;;18.90;51.70;;;;;;4981113;27;96722;-72